Time;durP1;ratioP1;P1;durP2;ratioP2;P2;SDS_P1;SDS_P2;PMS_P1;PMS_P2;Temp;Humidity;BMP_temperature;BMP_pressure;BME280_temperature;BME280_humidity;BME280_pressure;Samples;Min_cycle;Max_cycle;Signal;HPM_P1;HPM_P2
2022/01/24 00:01:31;;;;;;;13.75;11.57;;;6.20;99.90;;;;;;5093379;28;20203;-59
2022/01/24 00:03:59;;;;;;;16.95;11.60;;;6.20;99.90;;;;;;5093307;28;20207;-58
2022/01/24 00:06:27;;;;;;;12.20;10.23;;;6.20;99.90;;;;;;5092957;28;20220;-58
2022/01/24 00:08:54;;;;;;;15.68;11.32;;;6.20;99.90;;;;;;5093567;28;20223;-57
2022/01/24 00:11:26;;;;;;;15.48;10.95;;;6.20;99.90;;;;;;5093595;28;20203;-55
2022/01/24 00:16:57;;;;;;;13.25;10.93;;;6.20;99.90;;;;;;5093075;28;20216;-58
2022/01/24 00:27:35;;;;;;;12.50;9.75;;;6.20;99.90;;;;;;5097660;28;20577;-58
2022/01/24 00:30:04;;;;;;;12.88;10.18;;;6.20;99.90;;;;;;5097873;28;20208;-58
2022/01/24 00:32:32;;;;;;;14.38;11.02;;;6.20;99.90;;;;;;5097783;28;20200;-57
2022/01/24 00:35:02;;;;;;;13.07;10.55;;;6.20;99.90;;;;;;5097167;28;20220;-58
2022/01/24 00:37:32;;;;;;;13.30;10.98;;;6.20;99.90;;;;;;5097429;28;20204;-56
2022/01/24 00:39:59;;;;;;;14.43;9.63;;;6.20;99.90;;;;;;5096854;28;20306;-58
2022/01/24 00:42:32;;;;;;;13.75;11.25;;;6.20;99.90;;;;;;5097104;28;20204;-59
2022/01/24 00:45:08;;;;;;;13.57;10.38;;;6.20;99.90;;;;;;5096954;28;20195;-58
2022/01/24 00:48:01;;;;;;;14.25;11.90;;;6.20;99.90;;;;;;5096752;28;20214;-58
2022/01/24 00:53:29;;;;;;;14.13;11.82;;;6.10;99.90;;;;;;5096973;28;20211;-58
2022/01/24 00:55:57;;;;;;;16.08;11.50;;;6.10;99.90;;;;;;5096455;28;20224;-58
2022/01/24 00:58:24;;;;;;;16.10;12.95;;;6.20;99.90;;;;;;5096416;28;20197;-58
2022/01/24 01:00:51;;;;;;;14.50;11.85;;;6.20;99.90;;;;;;5096415;28;20200;-57
2022/01/24 01:03:19;;;;;;;16.52;12.55;;;6.20;99.90;;;;;;5096984;28;20205;-58
2022/01/24 01:06:02;;;;;;;20.80;12.65;;;6.20;99.90;;;;;;5096640;28;20230;-59
2022/01/24 01:19:39;;;;;;;16.90;12.50;;;6.20;99.90;;;;;;5061231;28;20200;-57
2022/01/24 01:22:06;;;;;;;15.63;12.63;;;6.20;99.90;;;;;;5097085;28;20557;-59
2022/01/24 01:24:42;;;;;;;14.38;11.85;;;6.20;99.90;;;;;;5096530;28;20253;-59
2022/01/24 01:27:14;;;;;;;15.30;12.00;;;6.20;99.90;;;;;;5095972;28;20266;-57
2022/01/24 01:29:54;;;;;;;15.20;13.18;;;6.20;99.90;;;;;;5095999;28;20594;-57
2022/01/24 01:32:36;;;;;;;19.48;13.10;;;6.20;99.90;;;;;;5096218;28;20234;-58
2022/01/24 01:35:24;;;;;;;17.48;13.48;;;6.20;99.90;;;;;;5096657;28;20204;-58
2022/01/24 01:38:23;;;;;;;14.80;12.30;;;6.20;99.90;;;;;;5095617;28;20255;-58
2022/01/24 01:57:19;;;;;;;17.60;14.73;;;6.20;99.90;;;;;;5093269;28;20220;-58
2022/01/24 01:59:46;;;;;;;16.73;13.25;;;6.20;99.90;;;;;;5096090;28;20691;-57
2022/01/24 02:02:14;;;;;;;16.80;13.13;;;6.20;99.90;;;;;;5095408;28;20238;-58
2022/01/24 02:04:42;;;;;;;16.85;12.55;;;6.20;99.90;;;;;;5095409;28;20211;-58
2022/01/24 02:07:13;;;;;;;16.48;12.60;;;6.20;99.90;;;;;;5095677;28;20566;-58
2022/01/24 02:09:43;;;;;;;16.60;12.95;;;6.20;99.90;;;;;;5095202;28;20507;-58
2022/01/24 02:12:11;;;;;;;18.83;13.52;;;6.20;99.90;;;;;;5095297;28;20668;-59
2022/01/24 02:14:45;;;;;;;15.38;13.88;;;6.20;99.90;;;;;;5095056;28;20787;-58
2022/01/24 02:17:18;;;;;;;18.58;12.98;;;6.20;99.90;;;;;;5095390;28;20270;-57
2022/01/24 02:20:07;;;;;;;17.10;13.27;;;6.20;99.90;;;;;;5095108;28;20629;-58
2022/01/24 02:22:46;;;;;;;18.60;12.68;;;6.20;99.90;;;;;;5095011;28;20220;-58
2022/01/24 02:25:25;;;;;;;15.88;13.43;;;6.20;99.90;;;;;;5094924;28;20278;-59
2022/01/24 02:27:59;;;;;;;16.58;13.15;;;6.20;99.90;;;;;;5095123;28;20277;-58
2022/01/24 02:31:05;;;;;;;17.20;13.85;;;6.20;99.90;;;;;;5094905;28;20191;-58
2022/01/24 02:33:32;;;;;;;14.68;12.95;;;6.20;99.90;;;;;;5094966;28;20243;-58
2022/01/24 02:35:59;;;;;;;15.68;12.27;;;6.20;99.90;;;;;;5094881;28;20224;-58
2022/01/24 02:38:40;;;;;;;16.67;13.70;;;6.20;99.90;;;;;;5094544;28;20686;-57
2022/01/24 02:49:28;;;;;;;15.07;13.00;;;6.30;99.90;;;;;;5094048;28;20240;-56
2022/01/24 02:52:03;;;;;;;14.48;12.77;;;6.30;99.90;;;;;;5094678;28;20204;-58
2022/01/24 02:54:33;;;;;;;14.88;13.38;;;6.30;99.90;;;;;;5094258;28;20208;-58
2022/01/24 02:57:00;;;;;;;15.55;12.80;;;6.20;99.90;;;;;;5094136;28;20221;-57
2022/01/24 02:59:29;;;;;;;15.23;11.95;;;6.20;99.90;;;;;;5094574;28;20295;-59
2022/01/24 03:01:56;;;;;;;17.75;12.30;;;6.20;99.90;;;;;;5094119;28;20668;-58
2022/01/24 03:04:24;;;;;;;14.43;12.30;;;6.20;99.90;;;;;;5094211;28;20706;-57
2022/01/24 03:06:51;;;;;;;16.17;12.93;;;6.20;99.90;;;;;;5093858;28;20224;-57
2022/01/24 03:09:22;;;;;;;16.10;12.43;;;6.20;99.90;;;;;;5093957;28;20207;-57
2022/01/24 03:12:03;;;;;;;14.50;12.50;;;6.20;99.90;;;;;;5095093;28;20208;-57
2022/01/24 03:14:31;;;;;;;16.52;13.00;;;6.20;99.90;;;;;;5094125;28;20254;-57
2022/01/24 03:16:59;;;;;;;16.98;12.43;;;6.20;99.90;;;;;;5093802;28;20220;-57
2022/01/24 03:19:26;;;;;;;15.35;12.23;;;6.20;99.90;;;;;;5094092;28;20204;-58
2022/01/24 03:21:53;;;;;;;16.85;12.13;;;6.20;99.90;;;;;;5094405;28;20200;-57
2022/01/24 03:24:20;;;;;;;16.20;12.75;;;6.20;99.90;;;;;;5097286;28;20585;-55
2022/01/24 03:26:48;;;;;;;16.05;12.55;;;6.20;99.90;;;;;;5097383;28;20234;-58
2022/01/24 03:29:17;;;;;;;16.42;13.48;;;6.30;99.90;;;;;;5097164;28;20212;-57
2022/01/24 03:31:45;;;;;;;14.75;11.80;;;6.20;99.90;;;;;;5096834;28;20205;-57
2022/01/24 03:34:13;;;;;;;14.15;11.25;;;6.30;99.90;;;;;;5095951;28;20293;-57
2022/01/24 03:36:42;;;;;;;11.60;10.23;;;6.30;99.90;;;;;;5095731;28;20774;-58
2022/01/24 03:39:10;;;;;;;14.93;11.85;;;6.30;99.90;;;;;;5098677;28;20533;-56
2022/01/24 03:41:39;;;;;;;10.57;6.97;;;6.30;99.90;;;;;;5099088;28;20671;-57
2022/01/24 03:44:06;;;;;;;11.18;8.32;;;6.40;99.90;;;;;;5099797;28;20287;-58
2022/01/24 03:46:48;;;;;;;9.73;7.57;;;6.40;99.90;;;;;;5096281;28;20223;-57
2022/01/24 03:52:03;;;;;;;7.07;5.20;;;6.40;99.90;;;;;;5092585;28;20199;-57
2022/01/24 03:54:30;;;;;;;6.72;5.88;;;6.40;99.90;;;;;;5094033;28;20224;-57
2022/01/24 03:56:57;;;;;;;6.72;6.03;;;6.40;99.90;;;;;;5095018;28;20619;-58
2022/01/24 03:59:24;;;;;;;7.60;6.22;;;6.40;99.90;;;;;;5093966;28;20291;-58
2022/01/24 04:01:53;;;;;;;8.45;6.53;;;6.40;99.90;;;;;;5093898;28;20572;-58
2022/01/24 04:04:20;;;;;;;7.93;6.70;;;6.50;99.90;;;;;;5093527;28;20207;-57
2022/01/24 04:09:13;;;;;;;8.77;6.50;;;6.40;99.90;;;;;;5091831;27;20965;-59
2022/01/24 04:11:40;;;;;;;10.23;7.32;;;6.50;99.90;;;;;;5093241;28;20200;-58
2022/01/24 04:14:25;;;;;;;9.55;6.45;;;6.50;99.90;;;;;;5095242;28;20207;-58
2022/01/24 04:17:05;;;;;;;9.40;7.40;;;6.50;99.90;;;;;;5094913;28;20253;-58
2022/01/24 04:21:19;;;;;;;9.73;7.63;;;6.50;99.90;;;;;;5091287;28;20185;-58
2022/01/24 04:22:25;;;;;;;10.85;8.82;;;6.40;99.90;;;;;;5073442;22;20241;-64
2022/01/24 04:24:59;;;;;;;11.70;8.20;;;6.40;99.90;;;;;;5050420;28;20277;-64
2022/01/24 04:27:27;;;;;;;9.55;7.78;;;6.50;99.90;;;;;;5050413;28;20214;-64
2022/01/24 04:29:54;;;;;;;11.98;9.30;;;6.40;99.90;;;;;;5050263;28;20201;-63
2022/01/24 04:32:21;;;;;;;10.90;9.10;;;6.50;99.90;;;;;;5050352;28;20307;-63
2022/01/24 04:34:49;;;;;;;14.73;10.32;;;6.50;99.90;;;;;;5050392;28;20209;-64
2022/01/24 04:37:16;;;;;;;13.32;10.80;;;6.50;99.90;;;;;;5050504;28;20213;-64
2022/01/24 04:39:44;;;;;;;12.05;9.15;;;6.50;99.90;;;;;;5049891;28;20209;-63
2022/01/24 04:42:24;;;;;;;13.68;10.98;;;6.50;99.90;;;;;;5050175;28;20218;-64
2022/01/24 04:45:09;;;;;;;12.57;11.15;;;6.40;99.90;;;;;;5049836;28;20202;-63
2022/01/24 04:50:18;;;;;;;15.15;13.05;;;6.50;99.90;;;;;;5049814;28;20229;-65
2022/01/24 04:50:41;;;;;;;18.40;12.60;;;6.40;99.90;;;;;;5049641;28;20660;-64
2022/01/24 04:53:15;;;;;;;18.17;14.45;;;6.30;99.90;;;;;;5052716;28;20193;-63
2022/01/24 04:55:42;;;;;;;17.25;13.23;;;6.30;99.90;;;;;;5053621;28;20243;-64
2022/01/24 04:58:10;;;;;;;18.13;15.10;;;6.30;99.90;;;;;;5052538;28;20201;-63
2022/01/24 05:00:37;;;;;;;21.35;15.52;;;6.30;99.90;;;;;;5050663;28;20248;-62
2022/01/24 05:03:04;;;;;;;19.45;14.82;;;6.30;99.90;;;;;;5049659;28;20213;-63
2022/01/24 05:05:31;;;;;;;18.98;14.70;;;6.20;99.90;;;;;;5049293;28;20681;-64
2022/01/24 05:08:03;;;;;;;20.58;15.63;;;6.20;99.90;;;;;;5049247;28;20217;-63
2022/01/24 05:10:36;;;;;;;19.48;15.88;;;6.30;99.90;;;;;;5049223;28;20226;-63
2022/01/24 05:21:41;;;;;;;17.75;13.45;;;6.20;99.90;;;;;;5035993;28;20233;-64
2022/01/24 05:24:07;;;;;;;23.23;14.93;;;6.20;99.90;;;;;;5035919;28;20267;-64
2022/01/24 05:26:34;;;;;;;20.95;14.32;;;6.20;99.90;;;;;;5036011;28;20233;-63
2022/01/24 05:29:01;;;;;;;17.67;13.95;;;6.20;99.90;;;;;;5035636;28;20226;-65
2022/01/24 05:31:30;;;;;;;15.00;12.10;;;6.20;99.90;;;;;;5035616;28;20222;-64
2022/01/24 05:33:57;;;;;;;19.80;14.73;;;6.20;99.90;;;;;;5036945;28;20202;-64
2022/01/24 05:36:24;;;;;;;23.02;13.45;;;6.10;99.90;;;;;;5036252;28;20198;-64
2022/01/24 05:38:51;;;;;;;16.98;14.15;;;6.10;99.90;;;;;;5037931;28;20249;-63
2022/01/24 05:41:18;;;;;;;20.90;15.18;;;6.10;99.90;;;;;;5038389;28;20577;-62
2022/01/24 05:43:45;;;;;;;17.50;13.32;;;6.10;99.90;;;;;;5037381;28;20205;-64
2022/01/24 05:46:12;;;;;;;19.73;14.73;;;6.10;99.90;;;;;;5037666;28;20233;-65
2022/01/24 05:48:41;;;;;;;19.00;14.25;;;6.10;99.90;;;;;;5037564;28;20222;-65
2022/01/24 05:51:08;;;;;;;19.02;15.70;;;6.10;99.90;;;;;;5038646;28;20248;-64
2022/01/24 05:53:35;;;;;;;19.00;14.02;;;6.10;99.90;;;;;;5039689;28;20202;-64
2022/01/24 05:56:02;;;;;;;19.38;13.23;;;6.10;99.90;;;;;;5038704;28;20206;-64
2022/01/24 05:58:29;;;;;;;16.58;13.43;;;6.20;99.90;;;;;;5041715;28;20548;-64
2022/01/24 06:00:56;;;;;;;19.77;14.50;;;6.20;99.90;;;;;;5040544;28;20230;-64
2022/01/24 06:03:24;;;;;;;20.60;13.57;;;6.20;99.90;;;;;;5040332;28;20206;-64
2022/01/24 06:05:52;;;;;;;16.33;12.63;;;6.20;99.90;;;;;;5039108;28;20256;-64
2022/01/24 06:08:19;;;;;;;16.52;11.82;;;6.20;99.90;;;;;;5039170;28;20229;-62
2022/01/24 06:10:47;;;;;;;15.13;12.30;;;6.20;99.90;;;;;;5041587;28;20226;-63
2022/01/24 06:13:14;;;;;;;17.80;12.77;;;6.20;99.90;;;;;;5040987;28;20225;-63
2022/01/24 06:15:42;;;;;;;13.27;9.90;;;6.20;99.90;;;;;;5042744;28;20210;-63
2022/01/24 06:18:10;;;;;;;15.15;11.35;;;6.20;99.90;;;;;;5042651;28;20202;-63
2022/01/24 06:20:37;;;;;;;16.17;11.45;;;6.20;99.90;;;;;;5043184;28;20237;-62
2022/01/24 06:23:06;;;;;;;15.75;11.57;;;6.30;99.90;;;;;;5040228;28;20665;-62
2022/01/24 06:25:33;;;;;;;16.17;12.02;;;6.30;99.90;;;;;;5037530;28;20221;-62
2022/01/24 06:28:00;;;;;;;13.70;11.27;;;6.30;99.90;;;;;;5042091;28;20226;-63
2022/01/24 06:30:27;;;;;;;16.50;13.45;;;6.30;99.90;;;;;;5038166;28;20444;-63
2022/01/24 06:32:54;;;;;;;17.98;13.80;;;6.30;99.90;;;;;;5037529;28;20579;-63
2022/01/24 06:35:21;;;;;;;20.48;13.95;;;6.30;99.90;;;;;;5036997;28;20693;-64
2022/01/24 06:37:48;;;;;;;18.45;13.77;;;6.40;99.90;;;;;;5037859;28;20209;-64
2022/01/24 06:40:17;;;;;;;20.40;15.00;;;6.40;99.90;;;;;;5038614;28;20256;-63
2022/01/24 06:42:44;;;;;;;19.08;14.52;;;6.40;99.90;;;;;;5038361;28;20248;-64
2022/01/24 06:45:11;;;;;;;19.73;13.98;;;6.40;99.90;;;;;;5038884;28;20206;-63
2022/01/24 06:47:40;;;;;;;18.70;14.57;;;6.40;99.90;;;;;;5036759;28;20209;-62
2022/01/24 06:50:07;;;;;;;16.08;12.38;;;6.40;99.90;;;;;;5038631;28;20203;-63
2022/01/24 06:52:35;;;;;;;19.23;13.93;;;6.50;99.90;;;;;;5039432;28;20675;-63
2022/01/24 06:55:02;;;;;;;19.08;14.48;;;6.50;99.90;;;;;;5038771;28;20210;-64
2022/01/24 06:57:30;;;;;;;18.00;13.18;;;6.50;99.90;;;;;;5038051;28;20551;-64
2022/01/24 06:59:57;;;;;;;16.35;13.10;;;6.50;99.90;;;;;;5034730;28;20199;-64
2022/01/24 07:02:24;;;;;;;17.30;13.35;;;6.50;99.90;;;;;;5034780;28;20229;-64
2022/01/24 07:04:51;;;;;;;18.33;13.15;;;6.50;99.90;;;;;;5034306;28;20199;-65
2022/01/24 07:07:19;;;;;;;17.77;11.60;;;6.50;99.90;;;;;;5034323;28;20579;-64
2022/01/24 07:09:46;;;;;;;16.08;11.55;;;6.50;99.90;;;;;;5033983;28;20225;-65
2022/01/24 07:12:13;;;;;;;18.30;12.43;;;6.50;99.90;;;;;;5034542;28;20229;-64
2022/01/24 07:14:42;;;;;;;17.92;12.40;;;6.50;99.90;;;;;;5034727;28;20202;-64
2022/01/24 07:17:28;;;;;;;16.10;12.07;;;6.50;99.90;;;;;;5034112;28;20202;-64
2022/01/24 07:19:55;;;;;;;15.90;11.85;;;6.50;99.90;;;;;;5033563;28;20202;-64
2022/01/24 07:22:22;;;;;;;18.58;13.20;;;6.50;99.90;;;;;;5034384;28;20729;-64
2022/01/24 07:24:49;;;;;;;15.95;11.57;;;6.50;99.90;;;;;;5035651;28;20198;-63
2022/01/24 07:27:16;;;;;;;19.23;13.40;;;6.50;99.90;;;;;;5035283;28;20210;-63
2022/01/24 07:29:45;;;;;;;17.75;13.65;;;6.50;99.90;;;;;;5034578;28;20226;-64
2022/01/24 07:32:13;;;;;;;22.77;15.05;;;6.50;99.90;;;;;;5038601;28;20222;-64
2022/01/24 07:34:40;;;;;;;18.25;14.23;;;6.40;99.90;;;;;;5041058;28;20224;-63
2022/01/24 07:37:07;;;;;;;18.13;14.00;;;6.50;99.90;;;;;;5041117;28;20202;-64
2022/01/24 07:39:34;;;;;;;21.23;15.50;;;6.40;99.90;;;;;;5040574;28;20221;-61
2022/01/24 07:42:14;;;;;;;17.90;14.50;;;6.50;99.90;;;;;;5034963;28;20317;-63
2022/01/24 07:44:41;;;;;;;22.45;15.95;;;6.50;99.90;;;;;;5034870;28;20198;-64
2022/01/24 07:47:10;;;;;;;20.30;14.80;;;6.40;99.90;;;;;;5034002;28;20203;-63
2022/01/24 07:49:37;;;;;;;24.67;15.48;;;6.40;99.90;;;;;;5033375;28;20230;-62
2022/01/24 07:52:05;;;;;;;22.40;15.80;;;6.40;99.90;;;;;;5033868;28;20228;-64
2022/01/24 07:54:32;;;;;;;20.30;14.95;;;6.40;99.90;;;;;;5034042;28;20199;-64
2022/01/24 07:56:59;;;;;;;23.25;17.02;;;6.40;99.90;;;;;;5033692;28;20202;-65
2022/01/24 07:59:26;;;;;;;24.40;17.80;;;6.40;99.90;;;;;;5033872;28;20209;-64
2022/01/24 08:01:53;;;;;;;29.88;18.52;;;6.40;99.90;;;;;;5033715;28;20230;-62
2022/01/24 08:04:22;;;;;;;28.35;18.55;;;6.40;99.90;;;;;;5033778;28;20202;-64
2022/01/24 08:06:49;;;;;;;32.70;18.13;;;6.30;99.90;;;;;;5033374;28;20209;-64
2022/01/24 08:09:16;;;;;;;29.13;18.08;;;6.30;99.90;;;;;;5033455;28;20229;-64
2022/01/24 08:11:44;;;;;;;29.27;19.27;;;6.30;99.90;;;;;;5033474;28;20348;-64
2022/01/24 08:14:11;;;;;;;25.48;19.20;;;6.40;99.90;;;;;;5035350;28;20206;-64
2022/01/24 08:16:40;;;;;;;34.03;20.65;;;6.40;99.90;;;;;;5042164;28;20207;-63
2022/01/24 08:19:07;;;;;;;28.73;19.10;;;6.40;99.90;;;;;;5036791;28;20709;-65
2022/01/24 08:21:35;;;;;;;33.30;19.30;;;6.40;99.90;;;;;;5033228;28;20234;-63
2022/01/24 08:24:02;;;;;;;32.67;22.35;;;6.30;99.90;;;;;;5033387;28;20285;-64
2022/01/24 08:26:30;;;;;;;30.98;20.20;;;6.40;99.90;;;;;;5032946;28;20655;-63
2022/01/24 08:28:57;;;;;;;33.17;22.38;;;6.40;99.90;;;;;;5032957;28;20218;-64
2022/01/24 08:31:24;;;;;;;30.13;19.60;;;6.40;99.90;;;;;;5032512;28;20235;-65
2022/01/24 08:33:51;;;;;;;31.50;20.92;;;6.40;99.90;;;;;;5032756;28;20206;-63
2022/01/24 08:36:18;;;;;;;32.45;20.63;;;6.40;99.90;;;;;;5033294;28;20206;-64
2022/01/24 08:38:49;;;;;;;28.85;19.30;;;6.50;99.90;;;;;;5033190;28;20209;-63
2022/01/24 08:41:23;;;;;;;32.97;19.70;;;6.50;99.90;;;;;;5033060;28;20222;-63
2022/01/24 08:43:59;;;;;;;29.58;20.08;;;6.50;99.90;;;;;;5032725;28;20193;-63
2022/01/24 08:46:26;;;;;;;29.55;20.55;;;6.50;99.90;;;;;;5033010;28;20203;-64
2022/01/24 08:48:54;;;;;;;28.63;19.35;;;6.50;99.90;;;;;;5032746;28;20222;-64
2022/01/24 08:51:21;;;;;;;32.10;21.00;;;6.50;99.90;;;;;;5034831;28;20230;-65
2022/01/24 08:53:49;;;;;;;31.88;21.35;;;6.60;99.90;;;;;;5032851;28;20209;-63
2022/01/24 08:56:18;;;;;;;26.52;18.88;;;6.60;99.90;;;;;;5036626;28;20720;-63
2022/01/24 08:58:45;;;;;;;27.58;18.77;;;6.60;99.90;;;;;;5036769;28;20237;-64
2022/01/24 09:01:12;;;;;;;25.88;18.40;;;6.60;99.90;;;;;;5036612;28;20260;-64
2022/01/24 09:03:41;;;;;;;26.60;18.27;;;6.50;99.90;;;;;;5036172;28;20202;-62
2022/01/24 09:06:09;;;;;;;23.75;18.52;;;6.50;99.90;;;;;;5036349;28;20213;-63
2022/01/24 09:08:37;;;;;;;24.80;16.40;;;6.60;99.90;;;;;;5036109;28;20225;-63
2022/01/24 09:11:06;;;;;;;22.55;17.13;;;6.60;99.90;;;;;;5036335;28;20240;-63
2022/01/24 09:13:34;;;;;;;22.23;16.80;;;6.60;99.90;;;;;;5036071;28;20210;-64
2022/01/24 09:16:01;;;;;;;24.25;17.58;;;6.60;99.90;;;;;;5036109;28;20206;-63
2022/01/24 09:18:29;;;;;;;21.17;15.02;;;6.70;99.90;;;;;;5036017;28;20239;-63
2022/01/24 09:20:56;;;;;;;19.33;15.27;;;6.70;99.90;;;;;;5036754;28;20230;-64
2022/01/24 09:23:23;;;;;;;20.55;14.73;;;6.70;99.90;;;;;;5037397;28;20209;-63
2022/01/24 09:25:51;;;;;;;21.50;16.13;;;6.70;99.90;;;;;;5038166;28;20202;-64
2022/01/24 09:28:20;;;;;;;22.05;15.15;;;6.70;99.90;;;;;;5038210;28;20198;-63
2022/01/24 09:30:47;;;;;;;21.35;15.48;;;6.70;99.90;;;;;;5036904;28;20222;-62
2022/01/24 09:33:15;;;;;;;20.40;15.20;;;6.70;99.90;;;;;;5036299;28;20205;-63
2022/01/24 09:35:42;;;;;;;22.85;13.93;;;6.80;99.90;;;;;;5036018;28;20263;-64
2022/01/24 09:38:10;;;;;;;17.63;13.30;;;6.80;99.90;;;;;;5036942;28;20206;-63
2022/01/24 09:40:37;;;;;;;17.27;13.35;;;6.90;99.90;;;;;;5036412;28;20317;-64
2022/01/24 09:43:04;;;;;;;18.40;13.73;;;6.90;99.90;;;;;;5035990;28;20675;-63
2022/01/24 09:45:33;;;;;;;21.15;13.68;;;6.90;99.90;;;;;;5036220;28;20214;-63
2022/01/24 09:48:01;;;;;;;16.52;12.20;;;7.00;99.90;;;;;;5036234;28;20202;-64
2022/01/24 09:50:28;;;;;;;17.05;13.02;;;6.90;99.90;;;;;;5036439;28;20230;-63
2022/01/24 09:52:55;;;;;;;19.25;13.38;;;7.00;99.90;;;;;;5036076;28;20202;-63
2022/01/24 09:55:24;;;;;;;14.70;10.75;;;7.00;99.90;;;;;;5035614;28;20706;-63
2022/01/24 09:57:52;;;;;;;14.57;10.90;;;7.10;99.90;;;;;;5035370;28;20620;-63
2022/01/24 10:00:22;;;;;;;15.60;12.00;;;7.10;99.90;;;;;;5035848;28;20206;-63
2022/01/24 10:02:51;;;;;;;12.38;10.95;;;7.20;99.90;;;;;;5035390;28;20202;-63
2022/01/24 10:05:21;;;;;;;14.38;10.50;;;7.10;99.90;;;;;;5035487;28;20213;-64
2022/01/24 10:07:54;;;;;;;15.68;10.88;;;7.10;99.90;;;;;;5035536;28;20203;-64
2022/01/24 10:10:29;;;;;;;14.38;11.40;;;7.10;99.90;;;;;;5035574;28;20226;-63
2022/01/24 10:18:29;;;;;;;15.10;10.88;;;7.10;99.90;;;;;;5035712;28;20511;-63
2022/01/24 10:20:56;;;;;;;14.88;10.77;;;7.10;99.90;;;;;;5035000;28;20281;-63
2022/01/24 10:23:26;;;;;;;11.40;8.77;;;7.10;99.90;;;;;;5059269;22;20541;-58
2022/01/24 10:25:59;;;;;;;15.52;10.07;;;7.00;99.90;;;;;;5034659;28;20187;-58
2022/01/24 10:28:32;;;;;;;16.50;12.15;;;7.00;99.90;;;;;;5034789;28;20240;-58
2022/01/24 10:31:07;;;;;;;13.73;10.10;;;7.00;99.90;;;;;;5035471;28;20207;-58
2022/01/24 10:33:51;;;;;;;15.43;11.05;;;7.00;99.90;;;;;;5034565;28;20232;-58
2022/01/24 10:36:28;;;;;;;17.50;12.65;;;7.00;99.90;;;;;;5034449;28;20229;-59
2022/01/24 10:39:11;;;;;;;14.73;11.90;;;7.00;99.90;;;;;;5034548;28;20643;-58
2022/01/24 10:44:33;;;;;;;15.05;10.13;;;7.00;99.90;;;;;;5021469;28;20748;-58
2022/01/24 10:47:14;;;;;;;15.35;11.65;;;7.00;99.90;;;;;;5034190;28;20210;-58
2022/01/24 10:49:45;;;;;;;16.02;12.93;;;7.00;99.90;;;;;;5034766;28;20237;-58
2022/01/24 10:52:13;;;;;;;17.23;11.75;;;7.00;99.90;;;;;;5035082;28;20218;-58
2022/01/24 10:54:41;;;;;;;15.10;11.15;;;7.00;99.90;;;;;;5034463;28;20623;-58
2022/01/24 10:57:08;;;;;;;13.02;9.70;;;7.10;99.90;;;;;;5035722;28;20206;-58
2022/01/24 10:59:37;;;;;;;11.02;8.40;;;7.20;99.90;;;;;;5034932;28;20202;-58
2022/01/24 11:02:06;;;;;;;13.70;10.13;;;7.20;99.90;;;;;;5034330;28;20229;-59
2022/01/24 11:04:34;;;;;;;12.85;9.23;;;7.20;99.90;;;;;;5034701;28;20222;-59
2022/01/24 11:07:05;;;;;;;14.38;10.02;;;7.20;99.90;;;;;;5034308;28;20217;-58
2022/01/24 11:09:35;;;;;;;17.08;9.48;;;7.20;99.90;;;;;;5034461;28;20210;-58
2022/01/24 11:12:08;;;;;;;8.65;7.45;;;7.20;99.90;;;;;;5034024;28;20202;-58
2022/01/24 11:14:36;;;;;;;10.02;7.80;;;7.20;99.90;;;;;;5034001;28;20223;-58
2022/01/24 11:17:05;;;;;;;8.13;6.82;;;7.20;99.90;;;;;;5033307;28;20309;-58
2022/01/24 11:19:37;;;;;;;8.77;6.97;;;7.20;99.90;;;;;;5034033;28;20202;-58
2022/01/24 11:22:08;;;;;;;8.77;6.63;;;7.20;99.90;;;;;;5034535;28;20269;-58
2022/01/24 11:24:41;;;;;;;6.63;5.18;;;7.20;99.90;;;;;;5033801;28;20238;-58
2022/01/24 11:27:09;;;;;;;5.20;4.78;;;7.30;99.90;;;;;;5033542;28;20183;-58
2022/01/24 11:29:38;;;;;;;5.93;5.43;;;7.30;99.90;;;;;;5033377;28;20588;-59
2022/01/24 11:32:16;;;;;;;4.95;4.25;;;7.30;99.90;;;;;;5033901;28;20210;-59
2022/01/24 11:34:50;;;;;;;4.72;3.95;;;7.30;99.90;;;;;;5033469;28;20241;-58
2022/01/24 11:37:35;;;;;;;4.38;3.95;;;7.30;99.90;;;;;;5033802;28;20601;-59
2022/01/24 11:40:07;;;;;;;5.50;3.65;;;7.30;99.90;;;;;;5033873;28;20178;-59
2022/01/24 11:42:36;;;;;;;3.40;3.05;;;7.20;99.90;;;;;;5033485;28;20187;-58
2022/01/24 11:45:10;;;;;;;6.65;3.83;;;7.20;99.90;;;;;;5033293;28;20250;-59
2022/01/24 11:47:38;;;;;;;3.50;3.20;;;7.20;99.90;;;;;;5033784;28;20226;-59
2022/01/24 11:50:38;;;;;;;4.05;3.65;;;7.20;99.90;;;;;;5032895;28;20666;-59
2022/01/24 11:53:22;;;;;;;4.00;3.40;;;7.10;99.90;;;;;;5033350;28;20202;-59
2022/01/24 11:55:50;;;;;;;5.47;3.90;;;7.10;99.90;;;;;;5034202;28;20190;-57
2022/01/24 11:58:26;;;;;;;4.35;3.97;;;7.10;99.90;;;;;;5034799;28;20225;-59
2022/01/24 12:00:55;;;;;;;2.70;2.50;;;7.10;99.90;;;;;;5033783;28;20193;-58
2022/01/24 12:03:26;;;;;;;3.88;3.55;;;7.10;99.90;;;;;;5033497;28;20233;-59
2022/01/24 12:05:56;;;;;;;4.07;3.60;;;7.10;99.90;;;;;;5033362;28;20539;-59
2022/01/24 12:08:34;;;;;;;3.63;3.15;;;7.10;99.90;;;;;;5033051;28;20252;-58
2022/01/24 12:11:16;;;;;;;3.42;3.10;;;7.20;99.90;;;;;;5033284;28;20233;-59
2022/01/24 12:13:45;;;;;;;3.17;2.70;;;7.20;99.90;;;;;;5033030;28;20702;-59
2022/01/24 12:16:14;;;;;;;3.42;3.13;;;7.30;99.90;;;;;;5033226;28;20228;-59
2022/01/24 12:19:01;;;;;;;3.72;3.33;;;7.20;99.90;;;;;;5032928;28;20674;-58
2022/01/24 12:21:38;;;;;;;3.88;3.47;;;7.10;99.90;;;;;;5033142;28;20187;-58
2022/01/24 12:24:12;;;;;;;5.80;5.03;;;7.10;99.90;;;;;;5032553;28;20238;-59
2022/01/24 12:26:42;;;;;;;4.30;3.90;;;7.10;99.90;;;;;;5032946;28;20190;-59
2022/01/24 12:29:12;;;;;;;4.63;4.22;;;7.10;99.90;;;;;;5033918;28;20329;-58
2022/01/24 12:31:44;;;;;;;4.40;3.53;;;7.10;99.90;;;;;;5037074;28;20584;-59
2022/01/24 12:34:28;;;;;;;4.57;4.18;;;7.10;99.90;;;;;;5037074;28;20229;-58
2022/01/24 12:37:02;;;;;;;6.93;3.40;;;7.00;99.90;;;;;;5035331;28;20202;-59
2022/01/24 12:39:43;;;;;;;3.90;3.50;;;7.00;99.90;;;;;;5037108;28;20205;-57
2022/01/24 12:42:14;;;;;;;7.68;3.42;;;6.90;99.90;;;;;;5037696;28;20190;-58
2022/01/24 12:47:31;;;;;;;3.90;3.50;;;6.90;99.90;;;;;;5037162;28;20250;-58
2022/01/24 12:49:58;;;;;;;4.03;3.72;;;6.90;99.90;;;;;;5037164;28;20222;-58
2022/01/24 12:52:26;;;;;;;4.50;3.90;;;7.00;99.90;;;;;;5036916;28;20202;-58
2022/01/24 12:54:58;;;;;;;3.22;2.95;;;6.90;99.90;;;;;;5037240;28;20233;-57
2022/01/24 12:57:29;;;;;;;5.68;3.80;;;7.00;99.90;;;;;;5038153;28;20187;-58
2022/01/24 12:59:58;;;;;;;4.03;3.72;;;7.00;99.90;;;;;;5036346;28;20190;-57
2022/01/24 13:02:27;;;;;;;4.32;3.92;;;7.00;99.90;;;;;;5036303;28;20202;-57
2022/01/24 13:05:02;;;;;;;4.15;3.75;;;7.00;99.90;;;;;;5036289;28;20305;-58
2022/01/24 13:07:31;;;;;;;4.18;3.70;;;6.90;99.90;;;;;;5036847;28;20185;-58
2022/01/24 13:10:12;;;;;;;4.88;4.38;;;7.00;99.90;;;;;;5036695;28;20218;-57
2022/01/24 13:12:41;;;;;;;7.65;4.00;;;7.00;99.90;;;;;;5036884;28;20182;-58
2022/01/24 13:15:21;;;;;;;4.68;4.00;;;7.00;99.90;;;;;;5036943;28;20222;-58
2022/01/24 13:23:27;;;;;;;3.95;3.55;;;7.00;99.90;;;;;;5035679;28;20271;-58
2022/01/24 13:25:56;;;;;;;4.30;3.95;;;7.00;99.90;;;;;;5036169;28;20194;-58
2022/01/24 13:28:25;;;;;;;8.02;3.90;;;7.00;99.90;;;;;;5035905;28;20213;-59
2022/01/24 13:30:58;;;;;;;5.82;4.53;;;7.00;99.90;;;;;;5036513;28;20231;-58
2022/01/24 13:33:26;;;;;;;4.25;3.83;;;7.00;99.90;;;;;;5036751;28;20222;-58
2022/01/24 13:35:55;;;;;;;4.28;3.70;;;7.00;99.90;;;;;;5035834;28;20206;-58
2022/01/24 13:38:25;;;;;;;6.18;4.55;;;7.00;99.90;;;;;;5035962;28;20206;-56
2022/01/24 13:40:55;;;;;;;4.50;3.70;;;7.00;99.90;;;;;;5035042;28;20202;-58
2022/01/24 13:43:36;;;;;;;7.85;4.40;;;7.00;99.90;;;;;;5035349;28;20297;-58
2022/01/24 13:46:04;;;;;;;3.95;3.65;;;7.00;99.90;;;;;;5035388;28;20186;-58
2022/01/24 13:48:39;;;;;;;4.63;4.22;;;7.10;99.90;;;;;;5035337;28;20577;-58
2022/01/24 13:51:06;;;;;;;4.03;3.10;;;7.10;99.90;;;;;;5035224;28;20210;-58
2022/01/24 13:53:37;;;;;;;5.32;4.22;;;7.00;99.90;;;;;;5035454;28;20226;-58
2022/01/24 13:56:18;;;;;;;4.88;3.80;;;7.00;99.90;;;;;;5035543;28;20199;-59
2022/01/24 13:59:09;;;;;;;3.83;3.53;;;7.00;99.90;;;;;;5035690;28;20193;-58
2022/01/24 14:01:39;;;;;;;3.83;3.40;;;7.00;99.90;;;;;;5035161;28;20277;-58
2022/01/24 14:04:07;;;;;;;3.85;3.47;;;7.00;99.90;;;;;;5035289;28;20222;-58
2022/01/24 14:06:36;;;;;;;6.93;4.00;;;7.00;99.90;;;;;;5034952;28;20221;-58
2022/01/24 14:09:09;;;;;;;4.28;3.97;;;7.00;99.90;;;;;;5035419;28;20213;-59
2022/01/24 14:11:42;;;;;;;5.93;3.80;;;7.00;99.90;;;;;;5035160;28;20620;-58
2022/01/24 14:14:14;;;;;;;4.35;3.58;;;7.00;99.90;;;;;;5034925;28;20367;-59
2022/01/24 14:16:49;;;;;;;5.40;3.63;;;6.90;99.90;;;;;;5035219;28;20240;-58
2022/01/24 14:19:16;;;;;;;4.75;4.32;;;6.90;99.90;;;;;;5034936;28;20186;-59
2022/01/24 14:21:58;;;;;;;4.38;3.90;;;6.90;99.90;;;;;;5034791;28;20206;-58